createdAt,value
2023-04-18T00:08:44.158Z,88.06
2023-04-18T00:18:43.168Z,88.17
2023-04-18T00:28:43.405Z,86.52
2023-04-18T00:38:43.597Z,87.24
2023-04-18T00:48:43.788Z,87.65
2023-04-18T00:58:43.994Z,87.96
2023-04-18T01:08:44.243Z,88.17
2023-04-18T01:18:44.436Z,88.31
2023-04-18T01:28:44.703Z,88.10
2023-04-18T01:38:44.896Z,88.41
2023-04-18T01:48:45.171Z,88.00
2023-04-18T01:58:45.191Z,87.79
2023-04-18T02:08:45.447Z,88.41
2023-04-18T02:18:45.487Z,89.13
2023-04-18T02:28:47.665Z,89.52
2023-04-18T02:38:45.878Z,90.73
2023-04-18T02:48:46.086Z,91.50
2023-04-18T02:58:46.271Z,92.02
2023-04-18T03:08:48.512Z,91.81
2023-04-18T03:18:46.703Z,92.12
2023-04-18T03:28:46.935Z,91.46
2023-04-18T03:38:47.163Z,91.25
2023-04-18T03:48:47.397Z,90.69
2023-04-18T03:58:47.620Z,90.12
2023-04-18T04:08:47.875Z,90.53
2023-04-18T04:18:48.110Z,91.05
2023-04-18T04:28:48.350Z,91.25
2023-04-18T04:38:48.545Z,91.50
2023-04-18T04:48:48.810Z,92.16
2023-04-18T04:58:49.018Z,92.27
2023-04-18T05:08:49.295Z,92.43
2023-04-18T05:18:49.300Z,91.81
2023-04-18T05:28:52.627Z,92.12
2023-04-18T05:38:49.635Z,91.25
2023-04-18T05:48:50.093Z,91.00
2023-04-18T05:58:50.190Z,87.84
2023-04-18T06:08:50.310Z,86.56
2023-04-18T06:18:50.325Z,84.40
2023-04-18T06:28:53.745Z,83.70
2023-04-18T06:38:50.763Z,82.84
2023-04-18T06:48:51.573Z,81.64
2023-04-18T06:58:51.171Z,78.83
2023-04-18T07:08:53.950Z,78.86
2023-04-18T07:18:51.662Z,79.34
2023-04-18T07:28:51.888Z,76.23
2023-04-18T07:38:52.102Z,74.97
2023-04-18T07:48:52.361Z,74.18
2023-04-18T07:58:52.434Z,74.66
2023-04-18T08:08:52.726Z,73.40
2023-04-18T08:18:52.729Z,68.48
2023-04-18T08:28:56.065Z,69.16
2023-04-18T08:38:53.065Z,65.97
2023-04-18T08:48:53.369Z,63.34
2023-04-18T08:58:53.374Z,63.29
2023-04-18T09:08:53.637Z,62.95
2023-04-18T09:18:53.835Z,60.21
2023-04-18T09:28:54.125Z,63.67
2023-04-18T09:38:56.658Z,61.59
2023-04-18T09:48:54.378Z,59.64
2023-04-18T09:58:54.386Z,53.93
2023-04-18T10:08:54.654Z,55.60
2023-04-18T10:18:54.663Z,57.56
2023-04-18T10:28:55.926Z,57.72
2023-04-18T10:38:55.136Z,55.99
2023-04-18T10:48:55.388Z,55.54
2023-04-18T10:58:55.584Z,52.59
2023-04-18T11:08:55.864Z,52.01
2023-04-18T11:18:55.911Z,53.85
2023-04-18T11:28:56.175Z,53.37
2023-04-18T11:38:56.371Z,54.80
2023-04-18T11:48:56.590Z,54.55
2023-04-18T11:58:56.790Z,54.58
2023-04-18T12:08:57.010Z,51.89
2023-04-18T12:18:57.225Z,51.61
2023-04-18T12:28:57.418Z,51.26
2023-04-18T12:38:57.634Z,54.15
2023-04-18T12:48:57.901Z,52.62
2023-04-18T12:58:57.926Z,53.50
2023-04-18T13:08:58.278Z,53.95
2023-04-18T13:18:58.286Z,52.42
2023-04-18T13:28:58.544Z,48.89
2023-04-18T13:38:58.755Z,50.24
2023-04-18T13:48:59.022Z,51.34
2023-04-18T13:58:59.216Z,49.33
2023-04-18T14:08:59.496Z,51.54
2023-04-18T14:18:59.511Z,47.34
2023-04-18T14:28:59.761Z,51.84
2023-04-18T14:38:59.972Z,48.96
2023-04-18T14:49:00.253Z,50.89
2023-04-18T14:59:00.472Z,51.84
2023-04-18T15:09:00.716Z,49.89
2023-04-18T15:19:00.997Z,50.81
2023-04-18T15:29:01.087Z,54.63
2023-04-18T15:39:01.380Z,50.56
2023-04-18T15:49:01.495Z,51.99
2023-04-18T15:59:01.460Z,50.86
2023-04-18T16:09:01.728Z,50.71
2023-04-18T16:19:01.736Z,52.42
2023-04-18T16:29:01.981Z,55.74
2023-04-18T16:39:02.338Z,56.81
2023-04-18T16:49:02.474Z,59.28
2023-04-18T16:59:02.692Z,59.71
2023-04-18T17:09:02.636Z,60.38
2023-04-18T17:19:02.828Z,62.56
2023-04-18T17:29:03.906Z,62.38
2023-04-18T17:39:03.380Z,64.98
2023-04-18T17:49:03.479Z,64.70
2023-04-18T17:59:03.692Z,65.14
2023-04-18T18:09:03.942Z,65.58
2023-04-18T18:19:04.430Z,66.86
2023-04-18T18:29:04.410Z,66.46
2023-04-18T18:39:04.638Z,66.79
2023-04-18T18:49:08.224Z,67.53
2023-04-18T18:59:05.048Z,68.04
2023-04-18T19:09:05.047Z,69.49
2023-04-18T19:19:05.369Z,69.32
2023-04-18T19:29:06.630Z,69.63
2023-04-18T19:39:05.350Z,71.12
2023-04-18T19:49:05.994Z,72.28
2023-04-18T19:59:06.094Z,72.96
2023-04-18T20:09:05.853Z,72.04
2023-04-18T20:19:06.134Z,73.47
2023-04-18T20:29:06.553Z,73.10
2023-04-18T20:39:08.333Z,73.91
2023-04-18T20:49:06.703Z,75.16
2023-04-18T20:59:06.781Z,75.68
2023-04-18T21:09:07.056Z,74.66
2023-04-18T21:19:07.059Z,75.41
2023-04-18T21:29:07.348Z,75.85
2023-04-18T21:39:07.370Z,76.50
2023-04-18T21:49:07.607Z,77.59
2023-04-18T21:59:07.826Z,77.76
2023-04-18T22:09:08.072Z,78.27
2023-04-18T22:19:08.277Z,79.13
2023-04-18T22:29:08.536Z,79.88
2023-04-18T22:39:08.741Z,80.22
2023-04-18T22:49:09.024Z,80.77
2023-04-18T22:59:09.031Z,82.65
2023-04-18T23:09:09.291Z,83.31
2023-04-18T23:19:09.318Z,84.37
2023-04-18T23:29:09.577Z,84.72
2023-04-18T23:39:09.791Z,85.54
2023-04-18T23:49:10.034Z,85.58
2023-04-18T23:59:10.262Z,86.03
